Time;durP1;ratioP1;P1;durP2;ratioP2;P2;SDS_P1;SDS_P2;PMS_P1;PMS_P2;Temp;Humidity;BMP_temperature;BMP_pressure;BME280_temperature;BME280_humidity;BME280_pressure;Samples;Min_cycle;Max_cycle;Signal;HPM_P1;HPM_P2
2022/10/20 00:02:23;;;;;;;16.83;13.80;;;13.50;99.90;;;;;;5008180;28;20388;-72
2022/10/20 00:04:48;;;;;;;20.77;13.85;;;13.50;99.90;;;;;;5008258;28;20815;-72
2022/10/20 00:07:14;;;;;;;17.00;13.60;;;13.40;99.90;;;;;;5008154;28;20409;-73
2022/10/20 00:09:39;;;;;;;17.07;12.73;;;13.40;99.90;;;;;;5021790;28;20841;-72
2022/10/20 00:12:05;;;;;;;16.67;11.80;;;13.30;99.90;;;;;;5027602;28;20501;-72
2022/10/20 00:14:30;;;;;;;17.45;12.85;;;13.30;99.90;;;;;;5027462;28;20740;-72
2022/10/20 00:16:57;;;;;;;16.23;12.40;;;13.30;99.90;;;;;;5013435;28;20405;-72
2022/10/20 00:19:22;;;;;;;14.13;11.75;;;13.20;99.90;;;;;;5008045;28;20728;-72
2022/10/20 00:21:48;;;;;;;16.25;12.25;;;13.20;99.90;;;;;;5008022;28;20462;-71
2022/10/20 00:24:13;;;;;;;14.85;11.60;;;13.30;99.90;;;;;;5007599;28;20438;-72
2022/10/20 00:26:39;;;;;;;14.77;11.23;;;13.10;99.90;;;;;;5007990;28;20460;-72
2022/10/20 00:29:04;;;;;;;15.93;11.25;;;13.00;99.90;;;;;;5007724;28;20417;-72
2022/10/20 00:31:30;;;;;;;16.88;12.00;;;13.10;99.90;;;;;;5007793;28;20435;-73
2022/10/20 00:33:56;;;;;;;15.48;11.70;;;13.00;99.90;;;;;;5018164;28;20394;-72
2022/10/20 00:36:23;;;;;;;15.75;12.13;;;13.00;99.90;;;;;;5027008;28;20529;-72
2022/10/20 00:38:48;;;;;;;14.70;11.40;;;13.00;99.90;;;;;;5027063;28;20456;-72
2022/10/20 00:41:20;;;;;;;16.80;11.87;;;12.90;99.90;;;;;;5027501;28;20395;-72
2022/10/20 00:43:51;;;;;;;14.20;11.88;;;12.90;99.90;;;;;;5017642;28;20400;-71
2022/10/20 00:46:20;;;;;;;17.33;12.30;;;12.90;99.90;;;;;;5021297;28;20414;-71
2022/10/20 00:48:50;;;;;;;13.10;10.50;;;13.00;99.90;;;;;;5027672;28;20383;-73
2022/10/20 00:51:19;;;;;;;13.80;11.30;;;12.90;99.90;;;;;;5027583;28;20402;-73
2022/10/20 00:53:45;;;;;;;11.98;10.45;;;13.00;99.90;;;;;;5027074;28;20432;-73
2022/10/20 00:56:11;;;;;;;14.48;11.48;;;12.90;99.90;;;;;;5014795;28;20774;-72
2022/10/20 00:58:37;;;;;;;17.15;11.70;;;12.90;99.90;;;;;;5007934;28;20403;-72
2022/10/20 01:01:03;;;;;;;13.07;11.35;;;12.80;99.90;;;;;;5019948;28;20399;-72
2022/10/20 01:03:38;;;;;;;13.23;10.70;;;12.80;99.90;;;;;;5025526;28;20384;-72
2022/10/20 01:06:05;;;;;;;12.10;10.82;;;12.80;99.90;;;;;;4987664;28;20505;-71
2022/10/20 01:08:30;;;;;;;11.60;10.00;;;12.70;99.90;;;;;;4987811;28;20390;-72
2022/10/20 01:11:18;;;;;;;12.60;10.50;;;12.70;99.90;;;;;;5005412;28;20397;-72
2022/10/20 01:14:04;;;;;;;14.43;10.35;;;12.70;99.90;;;;;;5007059;28;20382;-72
2022/10/20 01:16:55;;;;;;;12.35;10.07;;;12.80;99.90;;;;;;5007180;28;20450;-71
2022/10/20 01:19:53;;;;;;;11.23;10.10;;;12.80;99.90;;;;;;5007063;28;21022;-71
2022/10/20 01:22:57;;;;;;;11.77;9.77;;;12.70;99.90;;;;;;5012517;28;20396;-72
2022/10/20 01:25:47;;;;;;;11.23;10.00;;;12.80;99.90;;;;;;5026707;28;20388;-71
2022/10/20 01:28:36;;;;;;;11.10;10.00;;;12.70;99.90;;;;;;5026736;28;20539;-71
2022/10/20 01:31:10;;;;;;;10.50;9.23;;;12.70;99.90;;;;;;5025495;28;20406;-72
2022/10/20 01:33:49;;;;;;;10.55;9.45;;;12.70;99.90;;;;;;5013239;28;20503;-72
2022/10/20 01:36:20;;;;;;;13.05;9.35;;;12.70;99.90;;;;;;5004124;28;20413;-71
2022/10/20 01:39:05;;;;;;;12.20;9.77;;;12.70;99.90;;;;;;5006663;28;20381;-72
2022/10/20 01:41:41;;;;;;;10.75;9.65;;;12.70;99.90;;;;;;5006738;28;20391;-72
2022/10/20 01:44:10;;;;;;;9.77;8.77;;;12.70;99.90;;;;;;5044121;28;20400;-72
2022/10/20 01:46:39;;;;;;;12.32;9.00;;;12.60;99.90;;;;;;5065381;28;20440;-73
2022/10/20 01:49:06;;;;;;;12.43;9.10;;;12.70;99.90;;;;;;5109997;28;20774;-73
2022/10/20 01:51:32;;;;;;;11.40;9.10;;;12.70;99.90;;;;;;5069736;28;20399;-72
2022/10/20 01:53:57;;;;;;;10.10;8.40;;;12.60;99.90;;;;;;5030357;28;20412;-71
2022/10/20 01:56:38;;;;;;;10.17;8.10;;;12.70;99.90;;;;;;5056960;28;20388;-71
2022/10/20 01:59:41;;;;;;;10.32;7.90;;;12.60;99.90;;;;;;5022026;28;20411;-71
2022/10/20 02:02:36;;;;;;;8.48;7.57;;;12.70;99.90;;;;;;5045250;28;20384;-72
2022/10/20 02:05:16;;;;;;;8.27;7.40;;;12.70;99.90;;;;;;5007326;28;20480;-71
2022/10/20 02:07:42;;;;;;;8.90;8.00;;;12.70;99.90;;;;;;5025907;28;20415;-72
2022/10/20 02:10:08;;;;;;;8.87;7.83;;;12.70;99.90;;;;;;5010503;28;20401;-71
2022/10/20 02:12:37;;;;;;;7.57;6.73;;;12.60;99.90;;;;;;5009609;28;20460;-73
2022/10/20 02:15:04;;;;;;;8.70;7.80;;;12.50;99.90;;;;;;5009827;28;20385;-72
2022/10/20 02:17:33;;;;;;;9.10;7.50;;;12.50;99.90;;;;;;5009677;28;20389;-71
2022/10/20 02:19:59;;;;;;;8.80;7.90;;;12.50;99.90;;;;;;5023910;28;20414;-72
2022/10/20 02:22:25;;;;;;;8.40;7.50;;;12.50;99.90;;;;;;5020164;28;20395;-72
2022/10/20 02:24:50;;;;;;;8.75;7.88;;;12.50;99.90;;;;;;5029244;28;20478;-72
2022/10/20 02:27:23;;;;;;;8.40;7.15;;;12.60;99.90;;;;;;5029332;28;20427;-72
2022/10/20 02:29:58;;;;;;;9.30;7.60;;;12.60;99.90;;;;;;5029453;28;20387;-71
2022/10/20 02:32:24;;;;;;;8.30;7.50;;;12.60;99.90;;;;;;5025963;28;20412;-72
2022/10/20 02:34:49;;;;;;;8.65;7.28;;;12.60;99.90;;;;;;5009292;28;20381;-72
2022/10/20 02:37:15;;;;;;;7.60;6.80;;;12.50;99.90;;;;;;5009345;28;20400;-72
2022/10/20 02:39:41;;;;;;;8.77;7.88;;;12.40;99.90;;;;;;5009475;28;20803;-72
2022/10/20 02:42:06;;;;;;;9.70;7.55;;;12.50;99.90;;;;;;5028105;28;20889;-71
2022/10/20 02:44:32;;;;;;;8.33;7.63;;;12.50;99.90;;;;;;5028841;28;20399;-71
2022/10/20 02:46:58;;;;;;;8.13;7.00;;;12.60;99.90;;;;;;5028849;28;20483;-72
2022/10/20 02:49:24;;;;;;;9.00;7.10;;;12.60;99.90;;;;;;5029106;28;20383;-73
2022/10/20 02:51:50;;;;;;;7.50;6.80;;;12.60;99.90;;;;;;5021719;28;20856;-73
2022/10/20 02:54:15;;;;;;;7.90;7.10;;;12.60;99.90;;;;;;5028741;28;20491;-73
2022/10/20 02:56:41;;;;;;;7.90;7.07;;;12.50;99.90;;;;;;5028747;28;20817;-71
2022/10/20 02:59:11;;;;;;;8.00;7.17;;;12.50;99.90;;;;;;5028862;28;20391;-72
2022/10/20 03:01:36;;;;;;;10.45;7.50;;;12.40;99.90;;;;;;5037374;28;20405;-72
2022/10/20 03:04:02;;;;;;;7.80;7.10;;;12.50;99.90;;;;;;5013914;28;20579;-72
2022/10/20 03:06:27;;;;;;;7.57;6.68;;;12.50;99.90;;;;;;5026635;28;20494;-72
2022/10/20 03:08:53;;;;;;;8.73;6.93;;;12.50;99.90;;;;;;5027450;28;20414;-72
2022/10/20 03:11:18;;;;;;;7.53;6.73;;;12.40;99.90;;;;;;5028574;28;20386;-71
2022/10/20 03:13:44;;;;;;;8.23;7.18;;;12.40;99.90;;;;;;5026181;28;20415;-71
2022/10/20 03:16:09;;;;;;;7.70;7.00;;;12.30;99.90;;;;;;5008655;28;20423;-71
2022/10/20 03:18:35;;;;;;;8.93;7.03;;;12.40;99.90;;;;;;5008892;28;20436;-72
2022/10/20 03:21:00;;;;;;;8.25;7.15;;;12.50;99.90;;;;;;5010029;28;20963;-72
2022/10/20 03:23:26;;;;;;;9.05;7.15;;;12.50;99.90;;;;;;5008609;28;20795;-72
2022/10/20 03:25:51;;;;;;;7.90;6.60;;;12.50;99.90;;;;;;5008552;28;20385;-72
2022/10/20 03:28:17;;;;;;;7.50;6.80;;;12.50;99.90;;;;;;5008296;28;20397;-72
2022/10/20 03:30:42;;;;;;;7.80;7.00;;;12.50;99.90;;;;;;5007791;28;20389;-71
2022/10/20 03:33:08;;;;;;;7.40;6.70;;;12.40;99.90;;;;;;5010298;28;20391;-71
2022/10/20 03:35:33;;;;;;;10.20;7.47;;;12.40;99.90;;;;;;5028579;28;20388;-72
2022/10/20 03:37:59;;;;;;;8.18;6.80;;;12.30;99.90;;;;;;5043715;28;20402;-72
2022/10/20 03:40:24;;;;;;;10.95;7.00;;;12.40;99.90;;;;;;5028473;28;20422;-72
2022/10/20 03:42:50;;;;;;;9.10;7.03;;;12.40;99.90;;;;;;5027773;28;20422;-72
2022/10/20 03:45:15;;;;;;;10.30;7.23;;;12.50;99.90;;;;;;5012056;28;20406;-72
2022/10/20 03:47:41;;;;;;;7.55;6.15;;;12.60;99.90;;;;;;5022416;28;20421;-72
2022/10/20 03:50:07;;;;;;;6.60;6.00;;;12.50;99.90;;;;;;5008663;28;20468;-71
2022/10/20 03:52:32;;;;;;;6.95;6.03;;;12.40;99.90;;;;;;5008269;28;20859;-73
2022/10/20 03:54:58;;;;;;;6.97;6.17;;;12.40;99.90;;;;;;5008535;28;20388;-72
2022/10/20 03:57:23;;;;;;;7.97;6.20;;;12.30;99.90;;;;;;5010071;28;20393;-73
2022/10/20 03:59:49;;;;;;;7.75;6.40;;;12.20;99.90;;;;;;5028169;28;20384;-71
2022/10/20 04:02:42;;;;;;;9.00;6.20;;;12.20;99.90;;;;;;5028143;28;20384;-72
2022/10/20 04:05:10;;;;;;;10.13;6.30;;;12.20;99.90;;;;;;5019818;28;20409;-72
2022/10/20 04:07:35;;;;;;;12.38;6.53;;;12.10;99.90;;;;;;5008165;28;20441;-72
2022/10/20 04:10:01;;;;;;;7.30;6.50;;;12.10;99.90;;;;;;5008335;28;20385;-72
2022/10/20 04:12:27;;;;;;;8.43;6.80;;;12.20;99.90;;;;;;5007991;28;21059;-73
2022/10/20 04:14:52;;;;;;;10.20;6.70;;;12.30;99.90;;;;;;5011141;28;20478;-72
2022/10/20 04:17:18;;;;;;;7.10;6.40;;;12.30;99.90;;;;;;5026563;28;20398;-73
2022/10/20 04:19:44;;;;;;;7.30;6.50;;;12.40;99.90;;;;;;5027881;28;20438;-72
2022/10/20 04:22:09;;;;;;;7.95;6.75;;;12.40;99.90;;;;;;5016802;28;20425;-71
2022/10/20 04:24:35;;;;;;;9.60;6.37;;;12.40;99.90;;;;;;5008713;28;20824;-72
2022/10/20 04:27:01;;;;;;;8.85;6.25;;;12.50;99.90;;;;;;5027462;28;20531;-72
2022/10/20 04:29:26;;;;;;;10.43;6.70;;;12.50;99.90;;;;;;5027900;28;20454;-71
2022/10/20 04:31:52;;;;;;;7.03;6.10;;;12.50;99.90;;;;;;5027611;28;20390;-72
2022/10/20 04:34:17;;;;;;;8.60;6.20;;;12.50;99.90;;;;;;5026990;28;20384;-72
2022/10/20 04:36:43;;;;;;;8.95;5.60;;;12.50;99.90;;;;;;5020123;28;20896;-71
2022/10/20 04:39:08;;;;;;;7.73;6.13;;;12.40;99.90;;;;;;5027364;28;20400;-71
2022/10/20 04:41:34;;;;;;;9.53;6.50;;;12.50;99.90;;;;;;5027393;28;20395;-71
2022/10/20 04:43:59;;;;;;;8.30;6.10;;;12.50;99.90;;;;;;5027280;28;20443;-72
2022/10/20 04:46:25;;;;;;;10.30;6.30;;;12.50;99.90;;;;;;5034965;28;20485;-72
2022/10/20 04:48:52;;;;;;;6.40;5.80;;;12.50;99.90;;;;;;5007834;28;20392;-73
2022/10/20 04:51:18;;;;;;;6.63;5.93;;;12.40;99.90;;;;;;5015416;28;20395;-72
2022/10/20 04:53:43;;;;;;;8.20;6.10;;;12.40;99.90;;;;;;5027039;28;20392;-72
2022/10/20 04:56:19;;;;;;;13.13;6.25;;;12.40;99.90;;;;;;5027193;28;20402;-72
2022/10/20 04:58:49;;;;;;;9.45;6.30;;;12.50;99.90;;;;;;5027421;28;20764;-72
2022/10/20 05:01:15;;;;;;;7.82;6.10;;;12.60;99.90;;;;;;5020401;28;20393;-72
2022/10/20 05:03:41;;;;;;;8.25;5.53;;;12.60;99.90;;;;;;5007303;28;20385;-71
2022/10/20 05:06:18;;;;;;;6.47;5.78;;;12.60;99.90;;;;;;5006268;28;20415;-71
2022/10/20 05:08:46;;;;;;;7.45;5.93;;;12.60;99.90;;;;;;5007537;28;20408;-72
2022/10/20 05:11:13;;;;;;;6.28;5.68;;;12.60;99.90;;;;;;4993655;28;20926;-73
2022/10/20 05:13:38;;;;;;;6.30;5.70;;;12.50;99.90;;;;;;5026950;28;20757;-72
2022/10/20 05:16:05;;;;;;;8.27;5.57;;;12.50;99.90;;;;;;5027216;28;20430;-73
2022/10/20 05:18:31;;;;;;;6.35;5.40;;;12.50;99.90;;;;;;5025422;28;20403;-73
2022/10/20 05:20:57;;;;;;;5.63;5.05;;;12.50;99.90;;;;;;5036706;28;20758;-72
2022/10/20 05:23:23;;;;;;;8.57;5.97;;;12.50;99.90;;;;;;5008174;28;20413;-72
2022/10/20 05:25:48;;;;;;;6.40;5.67;;;12.40;99.90;;;;;;5008117;28;20438;-70
2022/10/20 05:28:14;;;;;;;7.53;5.60;;;12.30;99.90;;;;;;5024915;28;20409;-73
2022/10/20 05:30:39;;;;;;;6.70;6.00;;;12.30;99.90;;;;;;5019178;28;20394;-72
2022/10/20 05:33:05;;;;;;;5.90;5.30;;;12.30;99.90;;;;;;5016515;28;20472;-73
2022/10/20 05:35:31;;;;;;;10.17;5.73;;;12.30;99.90;;;;;;5018601;28;20387;-72
2022/10/20 05:37:56;;;;;;;6.60;5.53;;;12.30;99.90;;;;;;5011656;28;20423;-73
2022/10/20 05:40:23;;;;;;;8.20;5.40;;;12.40;99.90;;;;;;5007946;28;20509;-72
2022/10/20 05:42:48;;;;;;;6.10;5.50;;;12.30;99.90;;;;;;5008401;28;20837;-73
2022/10/20 05:45:14;;;;;;;6.00;5.40;;;12.40;99.90;;;;;;5008938;28;20453;-73
2022/10/20 05:47:41;;;;;;;6.90;5.20;;;12.40;99.90;;;;;;5010149;28;20828;-70
2022/10/20 05:50:08;;;;;;;6.75;5.30;;;12.30;99.90;;;;;;5012200;28;20393;-71
2022/10/20 05:52:34;;;;;;;6.88;5.57;;;12.20;99.90;;;;;;5009475;28;20380;-72
2022/10/20 05:55:00;;;;;;;6.33;5.37;;;12.20;99.90;;;;;;5009048;28;20447;-72
2022/10/20 05:57:25;;;;;;;6.37;5.40;;;12.20;99.90;;;;;;5009788;28;20404;-72
2022/10/20 05:59:51;;;;;;;8.40;5.93;;;12.10;99.90;;;;;;5014801;28;20403;-73
2022/10/20 06:02:16;;;;;;;9.88;6.32;;;12.20;99.90;;;;;;5029895;28;20776;-73
2022/10/20 06:04:42;;;;;;;5.60;5.10;;;12.30;99.90;;;;;;5029605;28;20494;-73
2022/10/20 06:07:10;;;;;;;7.90;5.77;;;12.40;99.90;;;;;;5028322;28;20399;-72
2022/10/20 06:09:37;;;;;;;9.82;6.45;;;12.40;99.90;;;;;;5011162;28;20404;-72
2022/10/20 06:12:04;;;;;;;7.05;5.50;;;12.50;99.90;;;;;;5010128;28;20394;-71
2022/10/20 06:14:29;;;;;;;7.43;6.03;;;12.40;99.90;;;;;;5009148;28;20819;-73
2022/10/20 06:16:55;;;;;;;7.50;5.87;;;12.50;99.90;;;;;;5051472;28;20389;-73
2022/10/20 06:19:22;;;;;;;7.65;5.80;;;12.40;99.90;;;;;;5029998;28;20430;-73
2022/10/20 06:21:48;;;;;;;8.00;5.90;;;12.50;99.90;;;;;;5012598;28;20400;-73
2022/10/20 06:24:15;;;;;;;8.37;5.67;;;12.50;99.90;;;;;;5009188;28;20555;-72
2022/10/20 06:26:42;;;;;;;7.25;5.93;;;12.50;99.90;;;;;;5003051;28;20421;-72
2022/10/20 06:29:11;;;;;;;10.93;6.13;;;12.50;99.90;;;;;;5005107;28;20405;-72
2022/10/20 06:31:39;;;;;;;6.53;5.47;;;12.50;99.90;;;;;;5008962;28;20484;-73
2022/10/20 06:34:07;;;;;;;8.15;6.20;;;12.50;99.90;;;;;;5055446;28;20373;-72
2022/10/20 06:36:38;;;;;;;7.40;5.50;;;12.60;99.90;;;;;;5111996;28;20388;-73
2022/10/20 06:39:06;;;;;;;8.32;5.85;;;12.50;99.90;;;;;;5112475;28;20376;-72
2022/10/20 06:41:32;;;;;;;7.03;5.10;;;12.50;99.90;;;;;;5110990;28;20892;-72
2022/10/20 06:43:58;;;;;;;6.82;5.32;;;12.60;99.90;;;;;;5024858;28;20395;-74
2022/10/20 06:46:26;;;;;;;7.40;5.70;;;12.60;99.90;;;;;;5017006;28;20452;-74
2022/10/20 06:48:51;;;;;;;7.30;5.03;;;12.70;99.90;;;;;;5018853;28;20554;-74
2022/10/20 06:51:20;;;;;;;7.20;5.10;;;12.70;99.90;;;;;;5027259;28;20470;-73
2022/10/20 06:53:47;;;;;;;7.13;5.70;;;12.80;99.90;;;;;;5028748;28;20425;-74
2022/10/20 06:56:22;;;;;;;7.82;5.28;;;12.90;99.90;;;;;;5008143;28;20453;-74
2022/10/20 06:58:50;;;;;;;9.10;5.30;;;13.00;99.90;;;;;;5027425;28;20536;-74
2022/10/20 07:01:17;;;;;;;8.00;4.93;;;13.00;99.90;;;;;;5029054;28;20415;-74
2022/10/20 07:03:44;;;;;;;7.47;5.13;;;13.10;99.90;;;;;;5028707;28;20383;-71
2022/10/20 07:06:17;;;;;;;5.63;5.03;;;13.20;99.90;;;;;;5028906;28;20408;-74
2022/10/20 07:08:43;;;;;;;6.40;4.85;;;13.30;99.90;;;;;;5011743;28;20906;-74
2022/10/20 07:11:15;;;;;;;7.23;4.60;;;13.30;99.90;;;;;;5009175;28;20404;-72
2022/10/20 07:13:41;;;;;;;9.05;4.80;;;13.30;99.90;;;;;;5019625;28;20422;-72
2022/10/20 07:16:10;;;;;;;8.23;4.80;;;13.40;99.90;;;;;;5028663;28;20391;-72
2022/10/20 07:18:36;;;;;;;8.18;4.90;;;13.50;99.90;;;;;;5028834;28;20386;-72
2022/10/20 07:21:04;;;;;;;5.82;4.97;;;13.70;99.90;;;;;;5026762;28;20458;-72
2022/10/20 07:23:31;;;;;;;7.45;5.25;;;13.70;99.90;;;;;;5016825;28;20407;-72
2022/10/20 07:26:05;;;;;;;6.05;4.45;;;13.80;99.90;;;;;;5026017;28;20417;-72
2022/10/20 07:28:31;;;;;;;11.35;5.10;;;14.00;99.90;;;;;;5007584;28;20447;-72
2022/10/20 07:31:21;;;;;;;8.40;5.75;;;14.10;99.90;;;;;;5007590;28;21075;-73
2022/10/20 07:33:47;;;;;;;8.18;6.53;;;14.00;99.90;;;;;;5008498;28;20405;-73
2022/10/20 07:36:17;;;;;;;8.90;7.93;;;14.20;99.90;;;;;;5012064;28;20846;-72
2022/10/20 07:38:44;;;;;;;17.33;10.07;;;14.30;99.90;;;;;;5026577;28;21098;-72
2022/10/20 07:41:10;;;;;;;19.02;10.73;;;14.40;99.90;;;;;;5028498;28;20395;-72
2022/10/20 07:43:36;;;;;;;13.05;10.57;;;14.40;99.90;;;;;;5028133;28;20394;-72
2022/10/20 07:46:02;;;;;;;13.95;11.80;;;14.50;99.90;;;;;;5021323;28;20890;-72
2022/10/20 07:48:28;;;;;;;15.57;11.80;;;14.60;99.90;;;;;;5008441;28;20434;-72
2022/10/20 07:50:53;;;;;;;15.47;12.47;;;14.70;99.90;;;;;;5008465;28;20423;-72
2022/10/20 07:53:19;;;;;;;15.60;11.80;;;14.60;99.90;;;;;;5008342;28;20388;-72
2022/10/20 07:55:45;;;;;;;12.68;11.02;;;14.60;99.90;;;;;;5011699;28;20411;-73
2022/10/20 07:58:11;;;;;;;11.93;10.70;;;14.70;99.90;;;;;;5028142;28;20394;-73
2022/10/20 08:00:37;;;;;;;11.48;10.38;;;14.80;99.90;;;;;;5028192;28;20410;-73
2022/10/20 08:03:02;;;;;;;12.23;10.20;;;14.90;99.90;;;;;;5027699;28;20476;-73
2022/10/20 08:05:28;;;;;;;10.57;9.57;;;15.00;99.90;;;;;;5016212;28;20873;-73
2022/10/20 08:07:54;;;;;;;12.97;9.50;;;15.20;99.90;;;;;;5007363;28;20837;-73
2022/10/20 08:10:20;;;;;;;10.57;9.57;;;15.20;99.90;;;;;;5007233;28;20385;-73
2022/10/20 08:12:45;;;;;;;10.00;9.00;;;15.30;99.90;;;;;;5007364;28;21089;-73
2022/10/20 08:15:11;;;;;;;10.50;9.40;;;15.30;99.90;;;;;;5015916;28;20985;-73
2022/10/20 08:17:37;;;;;;;12.40;8.82;;;15.40;99.90;;;;;;5017795;28;20407;-73
2022/10/20 08:20:03;;;;;;;9.93;9.00;;;15.40;99.90;;;;;;5008094;28;20891;-73
2022/10/20 08:22:29;;;;;;;10.45;9.45;;;15.50;99.90;;;;;;5007895;28;20397;-73
2022/10/20 08:24:54;;;;;;;12.70;9.57;;;15.60;99.90;;;;;;5008049;28;20450;-73
2022/10/20 08:27:20;;;;;;;10.90;8.70;;;15.60;99.90;;;;;;5008073;28;20435;-73
2022/10/20 08:29:45;;;;;;;12.83;8.90;;;15.60;99.90;;;;;;5013054;28;20408;-73
2022/10/20 08:32:13;;;;;;;10.75;8.00;;;15.70;99.90;;;;;;5007928;28;20401;-73
2022/10/20 08:34:39;;;;;;;9.70;7.50;;;15.70;99.90;;;;;;5007560;28;20406;-73
2022/10/20 08:37:05;;;;;;;7.93;6.82;;;15.80;99.90;;;;;;5016272;28;20395;-73
2022/10/20 08:39:30;;;;;;;10.33;7.90;;;15.80;99.90;;;;;;5018855;28;20470;-73
2022/10/20 08:41:57;;;;;;;7.10;6.40;;;15.70;99.90;;;;;;5010681;28;20562;-73
2022/10/20 08:44:29;;;;;;;7.45;6.75;;;15.70;99.90;;;;;;5031238;28;20515;-73
2022/10/20 08:46:54;;;;;;;11.05;7.43;;;15.60;99.90;;;;;;5036413;28;20485;-73
2022/10/20 08:49:29;;;;;;;9.50;7.80;;;15.60;99.90;;;;;;5034134;28;20783;-73
2022/10/20 08:51:54;;;;;;;8.90;7.13;;;15.60;99.90;;;;;;5018479;28;20386;-73
2022/10/20 08:54:20;;;;;;;10.70;7.73;;;15.70;99.90;;;;;;5007941;28;20380;-73
2022/10/20 08:56:46;;;;;;;9.60;7.05;;;15.70;99.90;;;;;;5007644;28;20918;-73
2022/10/20 08:59:25;;;;;;;12.68;7.90;;;15.80;99.90;;;;;;5012900;28;20403;-73
2022/10/20 09:01:52;;;;;;;9.18;7.13;;;15.90;99.90;;;;;;5026852;28;20403;-73
2022/10/20 09:04:25;;;;;;;9.23;6.70;;;16.10;99.90;;;;;;5026879;28;20414;-71
2022/10/20 09:06:56;;;;;;;9.93;7.10;;;16.00;99.90;;;;;;5027199;28;20484;-72
2022/10/20 09:09:24;;;;;;;10.18;7.30;;;16.10;99.90;;;;;;5026570;28;20404;-72
2022/10/20 09:11:51;;;;;;;11.18;7.40;;;16.20;99.90;;;;;;5026399;28;20387;-72
2022/10/20 09:14:16;;;;;;;9.18;7.28;;;16.30;99.90;;;;;;5022378;28;20789;-72
2022/10/20 09:16:45;;;;;;;8.70;7.32;;;16.40;99.90;;;;;;5005815;28;20404;-72
2022/10/20 09:19:21;;;;;;;12.02;7.93;;;16.50;99.90;;;;;;5025594;28;20406;-72
2022/10/20 09:21:51;;;;;;;10.30;7.70;;;16.60;99.90;;;;;;5022621;28;20954;-72
2022/10/20 09:24:19;;;;;;;13.02;7.70;;;16.60;99.90;;;;;;5042226;28;21214;-72
2022/10/20 09:26:47;;;;;;;10.85;7.45;;;16.70;99.90;;;;;;5035672;28;20476;-72
2022/10/20 09:29:14;;;;;;;9.48;7.80;;;16.70;99.90;;;;;;5020754;28;20390;-72
2022/10/20 09:31:44;;;;;;;10.25;7.22;;;16.70;99.90;;;;;;5032159;27;20430;-72
2022/10/20 09:34:22;;;;;;;10.23;6.60;;;16.60;99.90;;;;;;5011459;28;20403;-72
2022/10/20 09:36:49;;;;;;;10.20;6.93;;;16.80;99.90;;;;;;5016935;28;20439;-72
2022/10/20 09:39:25;;;;;;;7.00;6.30;;;16.80;99.90;;;;;;5025909;28;20400;-72
2022/10/20 09:42:00;;;;;;;9.05;6.80;;;17.00;99.90;;;;;;5018021;28;20404;-72
2022/10/20 09:44:26;;;;;;;10.38;6.90;;;17.10;99.90;;;;;;5024218;28;20411;-72
2022/10/20 09:46:53;;;;;;;8.20;6.90;;;17.30;99.90;;;;;;5015817;28;20909;-72
2022/10/20 09:49:23;;;;;;;9.35;6.40;;;17.30;99.90;;;;;;5010204;28;20406;-72
2022/10/20 09:51:51;;;;;;;9.13;6.60;;;17.30;99.90;;;;;;5009228;28;20401;-72
2022/10/20 09:54:19;;;;;;;7.60;6.80;;;17.30;99.90;;;;;;5025458;28;20396;-72
2022/10/20 09:56:45;;;;;;;8.63;6.78;;;17.40;99.90;;;;;;5016983;28;20767;-72
2022/10/20 09:59:35;;;;;;;7.03;6.33;;;17.40;99.90;;;;;;5013945;28;20507;-73
2022/10/20 10:02:20;;;;;;;7.93;6.00;;;17.30;99.90;;;;;;5008964;28;20425;-72
2022/10/20 10:04:50;;;;;;;9.50;5.97;;;17.50;99.90;;;;;;5044696;28;20436;-72
2022/10/20 10:07:35;;;;;;;7.30;6.60;;;17.40;99.90;;;;;;5025682;28;20438;-72
2022/10/20 10:10:18;;;;;;;6.88;6.10;;;17.30;99.90;;;;;;5025838;28;20399;-72
2022/10/20 10:12:51;;;;;;;8.07;5.90;;;17.30;99.90;;;;;;5029012;28;20391;-73
2022/10/20 10:15:32;;;;;;;7.85;5.55;;;17.20;99.90;;;;;;5029272;28;20822;-72
2022/10/20 10:17:59;;;;;;;6.47;5.87;;;17.20;99.90;;;;;;5036592;28;20472;-72
2022/10/20 10:20:32;;;;;;;6.72;6.07;;;17.20;99.90;;;;;;5033765;28;20410;-72
2022/10/20 10:23:21;;;;;;;6.20;5.60;;;17.10;99.90;;;;;;5031421;28;20391;-72
2022/10/20 10:25:48;;;;;;;6.10;5.20;;;17.10;99.90;;;;;;5011457;28;20407;-72
2022/10/20 10:28:29;;;;;;;7.25;5.45;;;17.20;99.90;;;;;;5019470;28;20975;-73
2022/10/20 10:31:06;;;;;;;6.20;5.60;;;17.20;99.90;;;;;;5004100;28;20456;-72
2022/10/20 10:33:34;;;;;;;6.85;6.15;;;17.40;99.90;;;;;;4989644;28;20439;-72
2022/10/20 10:36:16;;;;;;;6.13;5.10;;;17.50;99.90;;;;;;4987955;28;20387;-73
2022/10/20 10:38:41;;;;;;;6.22;5.43;;;17.50;99.90;;;;;;4991752;28;20745;-73
2022/10/20 10:41:31;;;;;;;5.57;4.83;;;17.50;99.90;;;;;;5044077;28;20391;-73
2022/10/20 10:44:14;;;;;;;5.95;4.05;;;17.50;99.90;;;;;;5017283;28;20759;-73
2022/10/20 10:46:44;;;;;;;7.57;5.10;;;17.40;99.90;;;;;;5008999;28;20417;-73
2022/10/20 10:49:09;;;;;;;6.00;4.20;;;17.50;99.90;;;;;;5009566;28;20385;-73
2022/10/20 10:52:03;;;;;;;4.90;4.20;;;17.50;99.90;;;;;;5009273;28;20522;-73
2022/10/20 10:54:53;;;;;;;5.38;4.40;;;17.80;99.90;;;;;;5023210;28;20757;-73
2022/10/20 10:57:41;;;;;;;7.10;4.70;;;17.80;99.90;;;;;;5013610;28;20401;-73
2022/10/20 11:00:16;;;;;;;7.80;4.70;;;18.00;99.90;;;;;;5037185;28;20397;-73
2022/10/20 11:03:00;;;;;;;6.90;4.28;;;18.00;99.90;;;;;;5015369;28;20409;-73
2022/10/20 11:05:45;;;;;;;5.00;4.30;;;18.10;99.90;;;;;;5006844;28;20393;-72
2022/10/20 11:08:24;;;;;;;10.82;4.60;;;18.20;99.90;;;;;;5004989;28;20435;-72
2022/10/20 11:11:34;;;;;;;7.07;4.10;;;18.30;99.90;;;;;;5028891;28;20422;-72
2022/10/20 11:13:59;;;;;;;8.43;4.63;;;18.30;99.90;;;;;;5028509;28;20379;-72
2022/10/20 11:16:53;;;;;;;5.45;4.20;;;18.20;99.90;;;;;;5028719;28;20384;-72
2022/10/20 11:19:57;;;;;;;6.50;4.55;;;18.10;99.90;;;;;;5012470;28;20393;-72
2022/10/20 11:22:28;;;;;;;5.68;4.30;;;18.20;99.90;;;;;;5007475;28;20488;-73
2022/10/20 11:25:20;;;;;;;5.40;4.40;;;18.20;99.90;;;;;;5008921;28;20761;-72
2022/10/20 11:27:46;;;;;;;7.50;4.97;;;18.20;99.90;;;;;;5008874;28;20409;-72
2022/10/20 11:30:17;;;;;;;15.70;6.10;;;18.10;99.90;;;;;;5008854;28;20967;-71
2022/10/20 11:32:51;;;;;;;10.70;5.30;;;18.20;99.90;;;;;;5008571;28;20411;-72
2022/10/20 11:35:49;;;;;;;9.13;4.70;;;18.20;99.90;;;;;;5008774;28;20381;-71
2022/10/20 11:38:23;;;;;;;6.93;4.85;;;18.30;99.90;;;;;;5021647;28;20402;-71
2022/10/20 11:40:59;;;;;;;9.27;4.82;;;18.30;99.90;;;;;;5031941;28;20452;-71
2022/10/20 11:43:27;;;;;;;11.30;5.30;;;18.30;99.90;;;;;;5015718;28;20417;-72
2022/10/20 11:46:07;;;;;;;7.28;4.78;;;18.40;99.90;;;;;;5018194;28;20420;-73
2022/10/20 11:48:43;;;;;;;9.00;5.32;;;18.50;99.90;;;;;;5017830;28;20923;-73
2022/10/20 11:51:30;;;;;;;7.50;5.20;;;18.50;99.90;;;;;;5025930;28;20545;-73
2022/10/20 11:54:08;;;;;;;8.43;5.40;;;18.70;99.90;;;;;;5019742;28;20451;-73
2022/10/20 11:56:43;;;;;;;7.60;5.10;;;18.80;99.90;;;;;;5012768;28;20451;-73
2022/10/20 11:59:46;;;;;;;7.03;4.80;;;18.80;99.90;;;;;;5027909;28;20880;-73
2022/10/20 12:02:31;;;;;;;7.70;4.40;;;18.80;99.90;;;;;;5028075;28;20391;-73
2022/10/20 12:05:26;;;;;;;7.93;4.90;;;19.00;99.90;;;;;;5027246;28;20399;-74
2022/10/20 12:08:00;;;;;;;5.90;4.63;;;19.30;99.90;;;;;;5027434;28;20420;-73
2022/10/20 12:10:51;;;;;;;7.55;4.50;;;19.40;99.90;;;;;;5020592;28;20393;-73
2022/10/20 12:13:31;;;;;;;6.05;4.93;;;19.50;99.90;;;;;;5007943;28;20393;-73
2022/10/20 12:15:56;;;;;;;5.77;4.80;;;19.40;99.90;;;;;;5008329;28;20381;-74
2022/10/20 12:18:27;;;;;;;7.43;4.60;;;19.40;99.90;;;;;;5008304;28;20901;-74
2022/10/20 12:20:59;;;;;;;10.05;5.32;;;19.40;99.90;;;;;;5017229;28;20398;-74
2022/10/20 12:23:47;;;;;;;7.95;5.40;;;19.20;99.90;;;;;;5010020;28;20418;-73
2022/10/20 12:26:28;;;;;;;7.37;5.30;;;19.20;99.90;;;;;;5019393;28;20406;-73
2022/10/20 12:29:30;;;;;;;11.40;5.75;;;19.30;99.90;;;;;;5026650;28;20937;-72
2022/10/20 12:32:22;;;;;;;9.93;6.40;;;19.20;99.90;;;;;;5033331;28;20753;-72
2022/10/20 12:34:53;;;;;;;11.10;8.83;;;19.20;99.90;;;;;;5026963;28;20416;-73
2022/10/20 12:37:34;;;;;;;13.40;6.70;;;19.20;99.90;;;;;;5025159;28;20475;-73
2022/10/20 12:40:19;;;;;;;13.20;6.90;;;19.20;99.90;;;;;;5008010;28;20389;-73
2022/10/20 12:42:52;;;;;;;10.63;6.60;;;19.40;99.90;;;;;;5026339;28;20742;-73
2022/10/20 12:45:18;;;;;;;10.57;6.53;;;19.40;99.90;;;;;;5027568;28;20881;-73
2022/10/20 12:48:18;;;;;;;8.40;7.13;;;19.30;99.90;;;;;;5008581;28;20408;-73
2022/10/20 12:50:45;;;;;;;9.50;7.43;;;19.20;99.90;;;;;;5006543;28;20476;-73
2022/10/20 12:53:17;;;;;;;10.63;7.90;;;19.20;99.90;;;;;;5004560;28;20390;-73
2022/10/20 12:55:46;;;;;;;10.73;7.95;;;19.10;99.90;;;;;;5003944;28;20812;-73
2022/10/20 12:58:18;;;;;;;9.27;8.20;;;18.90;99.90;;;;;;5006422;28;20408;-73
2022/10/20 13:00:47;;;;;;;9.88;7.78;;;18.90;99.90;;;;;;5007569;28;20404;-73
2022/10/20 13:03:30;;;;;;;13.95;8.52;;;18.80;99.90;;;;;;5014555;28;20511;-72